Time;durP1;ratioP1;P1;durP2;ratioP2;P2;SDS_P1;SDS_P2;PMS_P1;PMS_P2;Temp;Humidity;BMP_temperature;BMP_pressure;BME280_temperature;BME280_humidity;BME280_pressure;Samples;Min_cycle;Max_cycle;Signal;HPM_P1;HPM_P2
2023/12/19 00:04:21;;;;;;;54.70;25.50;;;7.70;99.90;;;;;;20915634;28;20141;-89
2023/12/19 00:15:07;;;;;;;51.15;25.27;;;7.60;99.90;;;;;;20815265;28;20048;-90
2023/12/19 00:25:36;;;;;;;;;;;;;;;;;;;;;
2023/12/19 00:35:48;;;;;;;55.20;24.70;;;7.70;99.90;;;;;;20863370;28;20130;-90
2023/12/19 00:46:03;;;;;;;55.97;25.60;;;7.60;99.90;;;;;;20859207;28;20040;-90
2023/12/19 00:56:21;;;;;;;60.88;26.10;;;7.70;99.90;;;;;;20899648;28;20452;-90
2023/12/19 01:06:34;;;;;;;;;;;;;;;;;;;;;
2023/12/19 01:16:35;;;;;;;59.78;27.38;;;7.70;99.90;;;;;;20851747;28;20448;-87
2023/12/19 01:27:01;;;;;;;60.95;28.02;;;7.70;99.90;;;;;;20873349;28;20428;-88
2023/12/19 01:37:20;;;;;;;57.90;26.77;;;7.70;99.90;;;;;;20920914;28;20044;-90
2023/12/19 01:47:23;;;;;;;56.80;25.83;;;7.90;99.90;;;;;;20872551;28;20040;-89
2023/12/19 01:57:24;;;;;;;54.95;25.75;;;7.90;99.90;;;;;;20892539;28;20056;-88
2023/12/19 02:07:25;;;;;;;54.83;25.45;;;7.90;99.90;;;;;;20893316;28;20057;-89
2023/12/19 02:17:26;;;;;;;51.92;24.45;;;8.00;99.90;;;;;;20881284;28;20400;-88
2023/12/19 02:27:27;;;;;;;49.67;24.52;;;7.90;99.90;;;;;;20885550;28;20048;-87
2023/12/19 02:37:28;;;;;;;45.85;23.10;;;7.90;99.90;;;;;;20889769;28;20120;-89
2023/12/19 02:47:42;;;;;;;46.42;22.40;;;7.90;99.90;;;;;;20861748;27;20036;-88
2023/12/19 02:57:46;;;;;;;53.53;25.35;;;7.80;99.90;;;;;;20855605;28;20049;-90
2023/12/19 03:07:47;;;;;;;52.38;25.08;;;7.90;99.90;;;;;;20799410;28;20239;-89
2023/12/19 03:18:06;;;;;;;46.33;23.35;;;8.00;99.90;;;;;;20791073;28;20041;-88
2023/12/19 03:28:16;;;;;;;48.63;24.85;;;8.00;99.90;;;;;;20833641;28;20060;-89
2023/12/19 03:38:20;;;;;;;47.28;23.08;;;8.10;99.90;;;;;;20900377;28;20033;-90
2023/12/19 03:48:34;;;;;;;42.72;21.48;;;8.10;99.90;;;;;;20824692;28;20053;-87
2023/12/19 03:58:41;;;;;;;45.55;22.10;;;8.20;99.90;;;;;;20892183;28;20120;-90
2023/12/19 04:08:42;;;;;;;37.63;21.30;;;8.20;99.90;;;;;;20932088;28;20063;-89
2023/12/19 04:19:01;;;;;;;;;;;;;;;;;;;;;
2023/12/19 04:29:04;;;;;;;42.80;21.80;;;8.30;99.90;;;;;;20846818;28;20046;-90
2023/12/19 04:39:04;;;;;;;36.83;19.50;;;8.40;99.90;;;;;;20774277;28;20060;-88
2023/12/19 04:49:08;;;;;;;38.20;19.50;;;8.40;99.90;;;;;;20847746;28;20033;-88
2023/12/19 04:59:26;;;;;;;37.55;19.90;;;8.40;99.90;;;;;;20960355;28;20057;-87
2023/12/19 05:10:29;;;;;;;30.65;17.88;;;8.50;99.90;;;;;;20943234;28;20037;-89
2023/12/19 05:20:59;;;;;;;30.48;18.45;;;8.50;99.90;;;;;;20644265;28;20057;-88
2023/12/19 05:31:18;;;;;;;32.05;18.85;;;8.40;99.90;;;;;;20803599;28;20052;-89
2023/12/19 05:41:39;;;;;;;32.28;17.52;;;8.40;99.90;;;;;;20811267;28;20053;-89
2023/12/19 05:53:10;;;;;;;;;;;;;;;;;;;;;
2023/12/19 06:13:41;;;;;;;24.15;14.35;;;8.50;99.90;;;;;;20538562;28;20050;-92
2023/12/19 06:24:50;;;;;;;28.95;16.20;;;8.60;99.90;;;;;;20808408;28;20046;-92
2023/12/19 06:34:44;;;;;;;28.33;17.13;;;8.60;99.90;;;;;;20779859;28;22524;-89
2023/12/19 06:44:51;;;;;;;32.05;19.13;;;8.70;99.90;;;;;;20665183;28;20469;-89
2023/12/19 06:54:55;;;;;;;36.17;19.63;;;8.60;99.90;;;;;;20641269;28;20037;-92
2023/12/19 07:05:32;;;;;;;38.75;22.65;;;8.70;99.90;;;;;;20704617;28;20046;-90
2023/12/19 07:15:48;;;;;;;36.10;21.47;;;8.70;99.90;;;;;;20742923;28;20059;-89
2023/12/19 07:26:47;;;;;;;36.28;22.75;;;8.70;99.90;;;;;;20871555;28;20044;-89
2023/12/19 07:37:19;;;;;;;38.53;21.90;;;8.60;99.90;;;;;;20777425;28;20037;-89
2023/12/19 07:47:26;;;;;;;47.22;25.00;;;8.60;99.90;;;;;;20831128;28;20133;-90
2023/12/19 07:57:52;;;;;;;39.38;22.25;;;8.60;99.90;;;;;;20801480;28;20045;-89
2023/12/19 08:08:19;;;;;;;33.95;20.17;;;8.50;99.90;;;;;;20850278;28;20064;-89
2023/12/19 08:18:57;;;;;;;37.33;20.03;;;8.40;99.90;;;;;;20816896;28;20041;-90
2023/12/19 08:29:21;;;;;;;33.00;19.07;;;8.50;99.90;;;;;;20767174;28;20038;-90
2023/12/19 08:39:28;;;;;;;37.80;20.77;;;8.50;99.90;;;;;;20800859;28;20068;-89
2023/12/19 08:59:52;;;;;;;31.65;18.58;;;8.60;99.90;;;;;;20836837;28;20170;-90
2023/12/19 09:10:05;;;;;;;31.70;17.55;;;8.60;99.90;;;;;;20764343;28;20037;-91
2023/12/19 09:20:31;;;;;;;28.65;16.83;;;8.70;99.90;;;;;;20871071;28;20048;-90
2023/12/19 09:30:43;;;;;;;26.85;15.90;;;8.70;99.90;;;;;;20881014;28;20113;-89
2023/12/19 09:40:45;;;;;;;25.88;15.52;;;8.70;99.90;;;;;;20840182;28;20057;-89
2023/12/19 09:50:54;;;;;;;28.17;16.27;;;8.70;99.90;;;;;;20577191;28;20050;-89
2023/12/19 10:01:00;;;;;;;29.65;17.65;;;8.70;99.90;;;;;;20689442;28;20046;-87
2023/12/19 10:11:05;;;;;;;27.37;16.37;;;8.80;99.90;;;;;;20768212;28;20048;-88
2023/12/19 10:21:32;;;;;;;25.77;16.65;;;8.80;99.90;;;;;;20752724;28;20045;-90
2023/12/19 10:31:48;;;;;;;22.70;15.50;;;8.80;99.90;;;;;;20722508;28;20042;-91
2023/12/19 10:42:18;;;;;;;24.98;14.77;;;8.80;99.90;;;;;;20658395;28;20051;-89
2023/12/19 11:14:28;;;;;;;22.58;14.45;;;8.80;99.90;;;;;;20482269;28;20175;-90
2023/12/19 11:25:33;;;;;;;22.92;14.38;;;8.80;99.90;;;;;;20537165;28;20049;-89
2023/12/19 11:46:29;;;;;;;18.70;12.77;;;8.90;99.90;;;;;;20527359;28;20066;-90
2023/12/19 11:57:04;;;;;;;19.38;11.60;;;8.90;99.90;;;;;;20611444;28;20044;-91
2023/12/19 12:07:34;;;;;;;20.80;12.20;;;8.90;99.90;;;;;;20754179;28;20048;-90
2023/12/19 12:17:38;;;;;;;17.30;11.13;;;8.90;99.90;;;;;;20720515;28;20528;-89
2023/12/19 12:28:36;;;;;;;14.45;10.15;;;9.00;99.90;;;;;;20836908;28;20412;-89
2023/12/19 12:39:10;;;;;;;;;;;;;;;;;;;;;
2023/12/19 13:01:25;;;;;;;15.07;9.52;;;8.90;99.90;;;;;;20157285;29;20049;-92
2023/12/19 13:22:50;;;;;;;15.38;9.45;;;9.00;99.90;;;;;;20547804;28;20079;-91
2023/12/19 13:44:28;;;;;;;10.00;7.68;;;9.10;99.90;;;;;;20618224;28;20141;-88
2023/12/19 13:55:37;;;;;;;;;;;;;;;;;;;;;
2023/12/19 14:16:27;;;;;;;5.97;4.50;;;9.20;99.90;;;;;;20148181;28;19915;-88
2023/12/19 14:26:30;;;;;;;6.75;3.90;;;9.10;99.90;;;;;;20340518;28;20053;-88
2023/12/19 14:36:36;;;;;;;5.10;3.47;;;9.10;99.90;;;;;;20744422;28;20064;-87
2023/12/19 14:46:40;;;;;;;5.10;3.90;;;9.10;99.90;;;;;;20758734;28;20513;-88
2023/12/19 14:56:47;;;;;;;5.38;3.45;;;9.20;99.90;;;;;;20800445;28;20512;-87
2023/12/19 15:06:50;;;;;;;6.65;4.47;;;9.10;99.90;;;;;;20831968;28;20172;-88
2023/12/19 15:16:54;;;;;;;7.85;5.32;;;9.10;99.90;;;;;;20807071;28;20049;-90
2023/12/19 15:27:26;;;;;;;6.50;4.30;;;9.10;1.00;;;;;;20720944;28;20057;-89
2023/12/19 15:38:20;;;;;;;;;;;;;;;;;;;;;
2023/12/19 16:11:48;;;;;;;12.75;6.78;;;9.10;1.00;;;;;;20521752;28;20054;-93
2023/12/19 16:22:04;;;;;;;13.05;6.38;;;9.10;1.00;;;;;;20579279;28;20077;-89
2023/12/19 16:32:06;;;;;;;11.73;6.53;;;9.10;1.00;;;;;;20797333;28;20130;-85
2023/12/19 16:42:18;;;;;;;9.52;5.93;;;9.00;1.00;;;;;;20766597;28;20425;-88
2023/12/19 16:52:27;;;;;;;10.75;5.30;;;9.00;1.00;;;;;;20822512;28;20404;-87
2023/12/19 17:02:29;;;;;;;9.95;4.15;;;9.00;1.00;;;;;;20837003;28;20843;-87
2023/12/19 17:12:53;;;;;;;5.57;3.15;;;9.00;1.00;;;;;;20853962;28;20040;-88
2023/12/19 17:23:36;;;;;;;;;;;;;;;;;;;;;
2023/12/19 17:33:40;;;;;;;8.10;4.03;;;8.90;1.00;;;;;;20677074;28;20493;-90
2023/12/19 17:43:41;;;;;;;8.07;3.95;;;8.90;1.00;;;;;;20879035;28;20045;-84
2023/12/19 17:53:48;;;;;;;8.35;4.20;;;8.80;1.00;;;;;;20910543;28;20067;-90
2023/12/19 18:03:52;;;;;;;14.00;6.20;;;8.80;1.00;;;;;;20909480;28;20053;-85
2023/12/19 18:13:53;;;;;;;8.10;5.10;;;8.80;1.00;;;;;;20873709;28;20047;-85
2023/12/19 18:23:54;;;;;;;11.00;5.55;;;8.80;1.00;;;;;;20889059;28;20045;-85
2023/12/19 18:34:03;;;;;;;20.75;7.25;;;8.70;1.00;;;;;;20872755;28;20060;-84
2023/12/19 18:44:06;;;;;;;13.15;7.18;;;8.80;1.00;;;;;;20840827;28;20073;-84
2023/12/19 18:54:08;;;;;;;15.35;8.32;;;8.80;1.00;;;;;;20912295;28;20052;-83
2023/12/19 19:04:14;;;;;;;15.70;8.27;;;9.00;1.00;;;;;;20873092;28;20056;-84
2023/12/19 19:14:20;;;;;;;9.63;6.47;;;9.00;1.00;;;;;;20972770;28;20053;-84
2023/12/19 19:24:26;;;;;;;7.40;3.75;;;8.90;1.00;;;;;;20949664;28;20413;-84
2023/12/19 19:34:39;;;;;;;5.30;2.47;;;8.60;99.90;;;;;;20866813;28;20043;-84
2023/12/19 19:44:40;;;;;;;8.18;3.95;;;8.50;99.90;;;;;;20915521;28;20072;-84
2023/12/19 19:55:15;;;;;;;7.93;3.40;;;8.40;99.90;;;;;;20897795;28;20048;-86
2023/12/19 20:05:22;;;;;;;6.88;2.60;;;8.30;99.90;;;;;;20867450;28;20041;-86
2023/12/19 20:15:28;;;;;;;6.30;3.10;;;8.20;99.90;;;;;;20816348;28;20081;-85
2023/12/19 20:25:32;;;;;;;8.20;4.17;;;8.20;99.90;;;;;;20839308;28;20048;-86
2023/12/19 20:35:41;;;;;;;6.95;3.90;;;8.10;99.90;;;;;;20824539;28;20120;-86
2023/12/19 21:20:06;;;;;;;12.95;2.80;;;7.80;99.90;;;;;;20269668;28;20138;-84
2023/12/19 21:31:35;;;;;;;10.38;1.88;;;7.70;99.90;;;;;;20660959;28;20109;-90
2023/12/19 21:41:14;;;;;;;5.28;1.80;;;7.50;99.90;;;;;;20835802;22;20055;-40
2023/12/19 21:51:15;;;;;;;10.90;3.10;;;7.20;99.90;;;;;;21008864;28;20042;-40
2023/12/19 22:01:16;;;;;;;9.45;1.98;;;7.00;99.90;;;;;;20991298;28;20036;-40
2023/12/19 22:11:16;;;;;;;10.48;2.60;;;6.90;99.90;;;;;;21014780;28;20048;-42
2023/12/19 22:21:23;;;;;;;9.68;2.90;;;6.90;99.90;;;;;;21020608;28;20046;-41
2023/12/19 22:31:23;;;;;;;10.40;2.70;;;6.80;99.90;;;;;;21017351;28;20098;-40
2023/12/19 22:41:24;;;;;;;8.50;2.22;;;6.70;99.90;;;;;;21015745;28;20048;-40
2023/12/19 22:51:25;;;;;;;18.23;3.03;;;6.50;99.90;;;;;;21014195;28;20046;-40
2023/12/19 23:01:25;;;;;;;14.60;1.85;;;6.40;99.90;;;;;;21013218;28;20043;-40
2023/12/19 23:11:26;;;;;;;12.63;3.00;;;6.50;99.90;;;;;;21016237;28;20159;-40
2023/12/19 23:21:26;;;;;;;10.82;2.60;;;6.50;99.90;;;;;;21010919;28;20520;-40
2023/12/19 23:31:27;;;;;;;21.25;4.60;;;6.60;99.90;;;;;;21009836;28;20110;-40
2023/12/19 23:41:28;;;;;;;16.20;2.85;;;6.40;99.90;;;;;;21008114;28;20064;-40
2023/12/19 23:51:28;;;;;;;17.35;2.08;;;6.40;99.90;;;;;;21007128;28;20048;-40
